Skip Navigation

Christman Field Latest Observations

Switch to metric unitsOther observation timesWeekly graphs

Date Time
MST
Temp
°F
RH
%
DewPt
°F
Wind
mph
Dir
°
Gust
mph
Dir
°
Press
in Hg
Solar
W/m^2
Prec
in
2018-05-27 20:25 61.1 54.0 44.4 0.0 0 0.0 1 24.745 0.1 0.00
2018-05-27 20:20 61.9 53.3 44.8 0.4 1 2.2 1 24.745 0.0 0.00
2018-05-27 20:15 63.1 51.5 44.9 2.6 1 3.9 1 24.740 0.0 0.00
2018-05-27 20:10 62.3 45.8 41.1 0.9 351 2.3 351 24.738 0.1 0.00
2018-05-27 20:05 62.3 47.8 42.3 2.5 351 3.7 345 24.734 0.0 0.00
2018-05-27 20:00 62.2 51.4 44.1 3.3 346 5.1 21 24.732 0.0 0.00
2018-05-27 19:55 61.1 51.9 43.3 4.0 22 5.5 12 24.727 0.1 0.00
2018-05-27 19:50 60.9 54.0 44.1 5.9 5 7.0 344 24.723 0.1 0.00
2018-05-27 19:45 61.1 54.3 44.5 5.4 357 6.8 357 24.719 0.2 0.00
2018-05-27 19:40 61.1 50.7 42.7 6.0 315 7.8 314 24.714 0.4 0.00
2018-05-27 19:35 61.6 54.0 44.8 4.9 348 6.4 334 24.709 0.8 0.00
2018-05-27 19:30 62.6 50.0 43.7 5.8 332 7.0 339 24.703 1.3 0.00
2018-05-27 19:25 61.9 48.5 42.3 7.7 341 9.3 330 24.698 2.0 0.00
2018-05-27 19:20 61.6 51.6 43.6 7.7 331 8.8 331 24.696 3.0 0.00
2018-05-27 19:15 62.5 52.8 45.1 6.1 302 7.5 291 24.696 5.3 0.00
2018-05-27 19:10 62.0 50.4 43.4 6.2 303 6.8 287 24.696 7.5 0.00
2018-05-27 19:05 62.7 53.5 45.6 5.5 286 6.4 295 24.696 9.0 0.00
2018-05-27 19:00 63.7 49.9 44.7 5.2 302 6.7 307 24.697 10.3 0.00
2018-05-27 18:55 63.9 48.8 44.3 4.4 310 6.0 304 24.697 11.8 0.00
2018-05-27 18:50 64.6 48.5 44.7 5.2 303 6.3 294 24.696 14.2 0.00
2018-05-27 18:45 65.0 47.9 44.8 4.7 310 7.4 326 24.692 18.2 0.00
2018-05-27 18:40 65.0 50.9 46.4 4.0 343 5.5 341 24.689 23.6 0.00
2018-05-27 18:35 65.0 50.2 46.0 4.8 349 6.7 333 24.687 31.8 0.00
2018-05-27 18:30 65.2 47.7 44.9 6.7 338 10.2 321 24.683 42.5 0.00
2018-05-27 18:25 65.5 48.1 45.4 8.1 318 10.8 322 24.677 52.9 0.00
2018-05-27 18:20 66.6 46.7 45.5 8.8 335 10.0 334 24.677 62.7 0.00
2018-05-27 18:15 67.4 42.5 43.9 10.0 327 13.5 318 24.683 76.0 0.00
2018-05-27 18:10 67.8 39.1 42.0 11.5 323 14.9 321 24.685 90.9 0.00
2018-05-27 18:05 68.0 38.8 42.0 13.3 318 17.8 315 24.685 104.1 0.00
2018-05-27 18:00 68.1 40.4 43.1 14.7 325 18.1 328 24.685 104.9 0.00